createdAt,value
2018-09-21T00:01:10.191Z,67.10
2018-09-21T00:03:38.484Z,67.19
2018-09-21T00:06:06.715Z,67.37
2018-09-21T00:08:34.856Z,67.40
2018-09-21T00:11:02.970Z,67.28
2018-09-21T00:13:31.153Z,67.59
2018-09-21T00:15:59.275Z,66.69
2018-09-21T00:18:27.423Z,66.88
2018-09-21T00:20:55.559Z,66.80
2018-09-21T00:23:23.792Z,66.92
2018-09-21T00:25:51.951Z,67.31
2018-09-21T00:28:20.322Z,66.81
2018-09-21T00:30:49.177Z,67.35
2018-09-21T00:33:17.384Z,67.91
2018-09-21T00:35:45.585Z,67.62
2018-09-21T00:38:14.307Z,67.34
2018-09-21T00:40:42.486Z,67.58
2018-09-21T00:43:10.623Z,67.08
2018-09-21T00:45:38.796Z,67.23
2018-09-21T00:48:06.985Z,67.44
2018-09-21T00:50:35.287Z,67.36
2018-09-21T00:53:03.529Z,67.33
2018-09-21T00:55:31.697Z,67.61
2018-09-21T00:57:59.776Z,67.95
2018-09-21T01:00:27.949Z,67.83
2018-09-21T01:02:56.729Z,67.85
2018-09-21T01:05:24.933Z,67.36
2018-09-21T01:07:53.151Z,67.51
2018-09-21T01:10:21.359Z,68.17
2018-09-21T01:12:49.766Z,67.93
2018-09-21T01:15:18.240Z,67.95
2018-09-21T01:17:47.083Z,68.13
2018-09-21T01:20:15.292Z,68.07
2018-09-21T01:22:43.464Z,68.88
2018-09-21T01:25:11.674Z,68.71
2018-09-21T01:27:39.981Z,68.59
2018-09-21T01:30:08.223Z,68.64
2018-09-21T01:32:36.410Z,68.67
2018-09-21T01:35:04.671Z,68.83
2018-09-21T01:37:32.909Z,68.79
2018-09-21T01:40:01.203Z,69.32
2018-09-21T01:42:29.435Z,69.35
2018-09-21T01:44:57.684Z,69.11
2018-09-21T01:47:25.901Z,69.06
2018-09-21T01:49:54.181Z,69.56
2018-09-21T01:52:22.454Z,68.56
2018-09-21T01:54:51.349Z,68.51
2018-09-21T01:57:19.783Z,68.99
2018-09-21T01:59:48.105Z,68.21
2018-09-21T02:02:16.329Z,68.17
2018-09-21T02:04:44.484Z,67.87
2018-09-21T02:07:12.997Z,68.65
2018-09-21T02:09:41.410Z,68.87
2018-09-21T02:12:09.591Z,68.61
2018-09-21T02:14:37.721Z,68.46
2018-09-21T02:17:05.880Z,68.06
2018-09-21T02:19:34.243Z,68.24
2018-09-21T02:22:02.503Z,68.32
2018-09-21T02:24:30.689Z,67.75
2018-09-21T02:26:59.787Z,68.14
2018-09-21T02:29:27.992Z,68.46
2018-09-21T02:31:56.211Z,68.91
2018-09-21T02:34:24.724Z,68.35
2018-09-21T02:36:53.724Z,68.88
2018-09-21T02:39:21.891Z,68.66
2018-09-21T02:41:50.036Z,68.99
2018-09-21T02:44:19.461Z,69.67
2018-09-21T02:46:47.665Z,69.30
2018-09-21T02:49:15.901Z,68.92
2018-09-21T02:51:44.099Z,68.76
2018-09-21T02:54:12.424Z,69.20
2018-09-21T02:56:41.353Z,69.89
2018-09-21T02:59:09.573Z,69.30
2018-09-21T03:01:37.730Z,69.31
2018-09-21T03:04:06.183Z,69.17
2018-09-21T03:09:01.991Z,69.70
2018-09-21T03:11:30.184Z,69.93
2018-09-21T03:13:58.375Z,69.45
2018-09-21T03:16:26.748Z,69.48
2018-09-21T03:18:54.951Z,69.92
2018-09-21T03:21:23.201Z,69.98
2018-09-21T03:23:51.607Z,70.73
2018-09-21T03:26:19.873Z,70.17
2018-09-21T03:28:48.061Z,70.27
2018-09-21T03:31:16.285Z,70.60
2018-09-21T03:33:44.556Z,70.20
2018-09-21T03:36:12.848Z,70.64
2018-09-21T03:38:41.056Z,70.34
2018-09-21T03:41:09.353Z,70.69
2018-09-21T03:43:38.485Z,70.56
2018-09-21T03:46:06.747Z,70.93
2018-09-21T03:48:35.019Z,70.83
2018-09-21T03:51:03.206Z,71.07
2018-09-21T03:53:31.559Z,71.07
2018-09-21T03:55:59.760Z,71.20
2018-09-21T03:58:27.941Z,71.13
2018-09-21T04:00:56.339Z,71.42
2018-09-21T04:03:25.771Z,71.21
2018-09-21T04:05:53.987Z,71.47
2018-09-21T04:08:22.222Z,71.77
2018-09-21T04:10:50.669Z,71.61
2018-09-21T04:13:18.821Z,71.65
2018-09-21T04:15:47.172Z,71.96
2018-09-21T04:18:16.044Z,72.13
2018-09-21T04:20:44.443Z,71.90
2018-09-21T04:23:12.773Z,71.95
2018-09-21T04:25:41.559Z,71.92
2018-09-21T04:28:09.768Z,72.60
2018-09-21T04:30:38.670Z,72.39
2018-09-21T04:33:06.796Z,72.42
2018-09-21T04:35:35.072Z,72.17
2018-09-21T04:38:03.260Z,71.39
2018-09-21T04:40:31.531Z,71.93
2018-09-21T04:42:59.975Z,72.29
2018-09-21T04:45:33.328Z,71.68
2018-09-21T04:48:06.176Z,71.91
2018-09-21T04:50:34.655Z,72.18
2018-09-21T04:53:02.816Z,72.25
2018-09-21T04:55:31.219Z,72.58
2018-09-21T04:57:59.385Z,71.91
2018-09-21T05:00:27.672Z,72.62
2018-09-21T05:02:55.837Z,72.50
2018-09-21T05:05:25.490Z,72.77
2018-09-21T05:07:56.262Z,72.93
2018-09-21T05:10:27.175Z,72.90
2018-09-21T05:12:55.484Z,73.20
2018-09-21T05:15:23.677Z,72.76
2018-09-21T05:17:51.852Z,72.49
2018-09-21T05:20:28.663Z,72.14
2018-09-21T05:22:56.971Z,71.64
2018-09-21T05:25:25.178Z,71.14
2018-09-21T05:27:53.494Z,70.32
2018-09-21T05:30:21.740Z,70.72
2018-09-21T05:32:50.497Z,70.70
2018-09-21T05:35:19.664Z,69.49
2018-09-21T05:37:47.916Z,69.27
2018-09-21T05:40:16.150Z,69.16
2018-09-21T05:42:44.467Z,68.78
2018-09-21T05:45:12.626Z,68.46
2018-09-21T05:47:40.915Z,68.18
2018-09-21T05:50:09.205Z,67.54
2018-09-21T05:52:37.539Z,67.30
2018-09-21T05:55:06.033Z,67.32
2018-09-21T05:57:39.097Z,66.60
2018-09-21T06:00:07.392Z,65.62
2018-09-21T06:02:35.709Z,66.33
2018-09-21T06:05:05.322Z,65.75
2018-09-21T06:07:34.105Z,65.00
2018-09-21T06:10:02.843Z,64.85
2018-09-21T06:12:31.110Z,64.99
2018-09-21T06:14:59.455Z,64.25
2018-09-21T06:17:28.862Z,64.54
2018-09-21T06:19:57.147Z,64.09
2018-09-21T06:22:29.613Z,63.27
2018-09-21T06:24:58.365Z,62.97
2018-09-21T06:27:27.627Z,62.69
2018-09-21T06:29:55.762Z,61.86
2018-09-21T06:32:24.313Z,62.57
2018-09-21T06:34:56.553Z,62.13
2018-09-21T06:37:25.419Z,61.36
2018-09-21T06:39:54.111Z,61.02
2018-09-21T06:42:22.678Z,60.04
2018-09-21T06:44:51.233Z,59.50
2018-09-21T06:47:19.622Z,59.08
2018-09-21T06:49:47.845Z,59.98
2018-09-21T06:52:16.268Z,59.21
2018-09-21T06:54:44.468Z,58.78
2018-09-21T06:57:12.785Z,58.66
2018-09-21T06:59:41.497Z,58.29
2018-09-21T07:02:09.661Z,57.80
2018-09-21T07:04:38.891Z,58.24
2018-09-21T07:07:07.213Z,58.04
2018-09-21T07:12:02.747Z,57.47
2018-09-21T07:14:30.949Z,56.44
2018-09-21T07:16:59.220Z,56.53
2018-09-21T07:19:27.477Z,57.15
2018-09-21T07:21:56.585Z,56.90
2018-09-21T07:24:24.878Z,56.80
2018-09-21T07:26:53.137Z,57.23
2018-09-21T07:29:21.344Z,56.51
2018-09-21T07:31:49.542Z,56.89
2018-09-21T07:34:17.752Z,56.89
2018-09-21T07:36:46.947Z,56.94
2018-09-21T07:39:15.159Z,57.67
2018-09-21T07:41:43.300Z,57.46
2018-09-21T07:44:11.839Z,56.88
2018-09-21T07:46:40.097Z,57.12
2018-09-21T07:49:08.354Z,57.54
2018-09-21T07:51:36.623Z,57.22
2018-09-21T07:54:05.424Z,56.94
2018-09-21T07:56:33.701Z,57.15
2018-09-21T07:59:01.943Z,56.22
2018-09-21T08:01:30.185Z,56.52
2018-09-21T08:03:58.833Z,56.46
2018-09-21T08:06:27.226Z,55.80
2018-09-21T08:08:55.387Z,54.82
2018-09-21T08:11:23.577Z,55.20
2018-09-21T08:13:51.880Z,53.94
2018-09-21T08:16:20.672Z,54.06
2018-09-21T08:18:49.058Z,53.21
2018-09-21T08:21:17.203Z,53.44
2018-09-21T08:23:45.415Z,52.44
2018-09-21T08:26:13.665Z,52.44
2018-09-21T08:28:41.831Z,51.30
2018-09-21T08:31:10.602Z,51.50
2018-09-21T08:33:38.776Z,50.96
2018-09-21T08:36:07.172Z,51.19
2018-09-21T08:38:35.446Z,50.16
2018-09-21T08:41:03.595Z,49.87
2018-09-21T08:43:31.976Z,49.48
2018-09-21T08:46:00.127Z,48.46
2018-09-21T08:48:28.304Z,49.43
2018-09-21T08:50:56.517Z,48.94
2018-09-21T08:53:24.759Z,48.86
2018-09-21T08:55:52.943Z,49.16
2018-09-21T08:58:25.647Z,48.40
2018-09-21T09:00:53.906Z,47.99
2018-09-21T09:03:22.140Z,47.71
2018-09-21T09:05:52.849Z,48.40
2018-09-21T09:08:22.416Z,47.99
2018-09-21T09:10:50.573Z,48.03
2018-09-21T09:13:19.430Z,47.97
2018-09-21T09:15:48.088Z,47.75
2018-09-21T09:18:16.329Z,47.49
2018-09-21T09:20:47.791Z,47.07
2018-09-21T09:23:16.083Z,45.62
2018-09-21T09:25:44.148Z,45.85
2018-09-21T09:28:12.383Z,46.11
2018-09-21T09:30:40.738Z,45.17
2018-09-21T09:33:08.989Z,45.33
2018-09-21T09:35:37.127Z,45.27
2018-09-21T09:38:05.351Z,44.57
2018-09-21T09:40:33.595Z,44.58
2018-09-21T09:43:02.621Z,44.72
2018-09-21T09:45:30.682Z,44.16
2018-09-21T09:47:59.005Z,44.21
2018-09-21T09:50:27.242Z,43.48
2018-09-21T09:52:55.497Z,43.68
2018-09-21T09:55:24.570Z,42.62
2018-09-21T09:57:52.795Z,43.04
2018-09-21T10:00:26.507Z,42.37
2018-09-21T10:02:55.297Z,42.00
2018-09-21T10:05:23.845Z,42.31
2018-09-21T10:07:52.030Z,42.09
2018-09-21T10:10:20.233Z,41.42
2018-09-21T10:12:48.449Z,41.91
2018-09-21T10:15:18.495Z,41.06
2018-09-21T10:17:46.821Z,40.75
2018-09-21T10:20:15.274Z,40.68
2018-09-21T10:22:43.497Z,40.41
2018-09-21T10:25:11.793Z,39.90
2018-09-21T10:27:40.006Z,40.31
2018-09-21T10:30:08.257Z,38.70
2018-09-21T10:32:36.537Z,37.66
2018-09-21T10:35:05.062Z,37.50
2018-09-21T10:37:33.187Z,37.88
2018-09-21T10:40:01.761Z,38.04
2018-09-21T10:42:29.955Z,37.11
2018-09-21T10:44:58.201Z,36.58
2018-09-21T10:47:26.481Z,37.08
2018-09-21T10:49:54.691Z,36.32
2018-09-21T10:52:23.097Z,35.56
2018-09-21T10:54:51.326Z,34.92
2018-09-21T10:59:46.719Z,35.84
2018-09-21T11:02:14.953Z,35.75
2018-09-21T11:04:43.185Z,35.22
2018-09-21T11:07:11.439Z,36.24
2018-09-21T11:09:39.874Z,36.03
2018-09-21T11:12:08.070Z,36.16
2018-09-21T11:14:36.439Z,36.33
2018-09-21T11:17:07.661Z,37.44
2018-09-21T11:19:35.991Z,37.32
2018-09-21T11:22:04.505Z,37.80
2018-09-21T11:24:32.645Z,36.69
2018-09-21T11:27:00.987Z,36.70
2018-09-21T11:29:29.185Z,36.77
2018-09-21T11:31:57.455Z,36.22
2018-09-21T11:34:25.694Z,36.68
2018-09-21T11:36:55.275Z,35.44
2018-09-21T11:39:23.572Z,35.50
2018-09-21T11:41:53.465Z,34.70
2018-09-21T11:44:22.191Z,35.03
2018-09-21T11:46:50.555Z,34.95
2018-09-21T11:49:18.833Z,34.00
2018-09-21T11:51:47.056Z,33.77
2018-09-21T11:54:15.221Z,34.87
2018-09-21T11:56:43.480Z,35.12
2018-09-21T11:59:12.637Z,34.34
2018-09-21T12:01:40.919Z,34.63
2018-09-21T12:04:09.083Z,34.26
2018-09-21T12:06:37.872Z,35.09
2018-09-21T12:09:07.015Z,34.92
2018-09-21T12:11:35.411Z,34.54
2018-09-21T12:14:03.972Z,35.15
2018-09-21T12:16:32.151Z,35.77
2018-09-21T12:19:00.336Z,35.12
2018-09-21T12:21:28.730Z,34.98
2018-09-21T12:23:57.018Z,35.52
2018-09-21T12:26:25.347Z,35.19
2018-09-21T12:28:53.485Z,35.06
2018-09-21T12:31:21.747Z,35.16
2018-09-21T12:33:50.121Z,34.90
2018-09-21T12:36:18.452Z,35.57
2018-09-21T12:38:46.653Z,35.58
2018-09-21T12:41:15.290Z,35.31
2018-09-21T12:43:43.579Z,34.78
2018-09-21T12:46:27.270Z,35.12
2018-09-21T12:48:58.604Z,35.23
2018-09-21T12:51:29.405Z,34.35
2018-09-21T12:53:58.475Z,34.44
2018-09-21T12:56:27.127Z,34.55
2018-09-21T12:58:55.406Z,35.08
2018-09-21T13:01:23.689Z,35.51
2018-09-21T13:03:52.624Z,35.36
2018-09-21T13:06:21.113Z,35.88
2018-09-21T13:08:49.242Z,35.90
2018-09-21T13:11:17.440Z,35.68
2018-09-21T13:13:46.295Z,36.37
2018-09-21T13:16:14.518Z,36.45
2018-09-21T13:18:43.001Z,36.18
2018-09-21T13:21:11.236Z,37.01
2018-09-21T13:23:39.696Z,36.87
2018-09-21T13:26:07.971Z,35.93
2018-09-21T13:28:36.377Z,36.53
2018-09-21T13:31:04.917Z,36.40
2018-09-21T13:33:33.113Z,35.89
2018-09-21T13:36:01.296Z,36.59
2018-09-21T13:38:29.618Z,36.48
2018-09-21T13:40:57.913Z,37.49
2018-09-21T13:43:26.170Z,36.76
2018-09-21T13:45:54.461Z,37.63
2018-09-21T13:48:23.559Z,37.84
2018-09-21T13:50:52.789Z,37.38
2018-09-21T13:53:20.970Z,37.90
2018-09-21T13:55:49.856Z,38.67
2018-09-21T13:58:18.646Z,38.46
2018-09-21T14:00:47.149Z,39.51
2018-09-21T14:03:16.213Z,39.49
2018-09-21T14:05:44.407Z,38.86
2018-09-21T14:08:12.709Z,39.45
2018-09-21T14:10:40.846Z,39.37
2018-09-21T14:13:09.058Z,38.80
2018-09-21T14:15:37.241Z,38.96
2018-09-21T14:18:05.546Z,38.79
2018-09-21T14:20:33.815Z,38.21
2018-09-21T14:23:02.125Z,39.12
2018-09-21T14:25:30.352Z,39.19
2018-09-21T14:27:58.640Z,39.18
2018-09-21T14:30:26.894Z,39.31
2018-09-21T14:32:55.116Z,38.99
2018-09-21T14:35:23.307Z,39.37
2018-09-21T14:37:51.585Z,39.02
2018-09-21T14:40:19.984Z,39.10
2018-09-21T14:42:48.539Z,38.52
2018-09-21T14:45:16.741Z,38.85
2018-09-21T14:47:44.955Z,37.95
2018-09-21T14:50:13.828Z,48.81
2018-09-21T14:52:42.008Z,58.25
2018-09-21T14:55:10.227Z,63.07
2018-09-21T14:57:38.517Z,65.88
2018-09-21T15:00:07.036Z,64.55
2018-09-21T15:02:35.264Z,62.91
2018-09-21T15:05:03.629Z,61.98
2018-09-21T15:07:31.867Z,61.97
2018-09-21T15:10:00.029Z,61.36
2018-09-21T15:12:28.239Z,63.91
2018-09-21T15:14:56.383Z,65.41
2018-09-21T15:17:24.629Z,69.58
2018-09-21T15:19:52.960Z,71.57
2018-09-21T15:22:21.141Z,72.24
2018-09-21T15:24:53.608Z,72.18
2018-09-21T15:27:21.789Z,74.53
2018-09-21T15:29:50.138Z,73.60
2018-09-21T15:32:18.362Z,77.13
2018-09-21T15:34:46.636Z,75.56
2018-09-21T15:37:15.537Z,76.22
2018-09-21T15:39:43.673Z,75.38
2018-09-21T15:42:11.891Z,74.69
2018-09-21T15:44:40.176Z,75.27
2018-09-21T15:47:08.480Z,76.68
2018-09-21T15:49:36.704Z,76.80
2018-09-21T15:52:05.636Z,74.68
2018-09-21T15:54:33.845Z,74.96
2018-09-21T15:57:02.017Z,75.33
2018-09-21T15:59:31.195Z,73.89
2018-09-21T16:01:59.429Z,74.07
2018-09-21T16:04:27.823Z,75.58
2018-09-21T16:06:56.099Z,75.50
2018-09-21T16:09:24.827Z,75.03
2018-09-21T16:11:53.162Z,76.75
2018-09-21T16:14:21.419Z,77.52
2018-09-21T16:16:49.559Z,77.96
2018-09-21T16:19:17.939Z,79.27
2018-09-21T16:21:46.613Z,78.28
2018-09-21T16:24:14.994Z,76.89
2018-09-21T16:26:43.114Z,76.27
2018-09-21T16:29:12.357Z,75.70
2018-09-21T16:31:47.299Z,78.01
2018-09-21T16:34:15.532Z,78.07
2018-09-21T16:36:44.060Z,76.73
2018-09-21T16:39:12.765Z,77.29
2018-09-21T16:41:41.211Z,78.21
2018-09-21T16:44:09.866Z,78.89
2018-09-21T16:46:38.060Z,78.73
2018-09-21T16:49:06.332Z,77.22
2018-09-21T16:51:37.589Z,77.84
2018-09-21T16:54:10.868Z,77.78
2018-09-21T16:56:41.915Z,77.47
2018-09-21T16:59:10.794Z,78.36
2018-09-21T17:01:43.381Z,78.51
2018-09-21T17:04:11.592Z,79.26
2018-09-21T17:06:39.814Z,78.42
2018-09-21T17:09:09.935Z,78.94
2018-09-21T17:11:38.371Z,77.72
2018-09-21T17:14:06.973Z,78.68
2018-09-21T17:16:35.165Z,78.38
2018-09-21T17:19:03.478Z,78.36
2018-09-21T17:21:42.939Z,77.93
2018-09-21T17:24:15.238Z,77.35
2018-09-21T17:26:43.521Z,77.25
2018-09-21T17:29:11.713Z,77.43
2018-09-21T17:31:40.030Z,76.70
2018-09-21T17:34:08.199Z,76.49
2018-09-21T17:36:36.921Z,77.50
2018-09-21T17:39:07.971Z,78.00
2018-09-21T17:44:31.103Z,81.39
2018-09-21T17:47:01.238Z,78.09
2018-09-21T17:49:29.961Z,79.20
2018-09-21T17:51:58.202Z,78.71
2018-09-21T17:54:28.681Z,78.59
2018-09-21T17:56:56.838Z,78.57
2018-09-21T17:59:25.075Z,79.52
2018-09-21T18:01:53.315Z,79.45
2018-09-21T18:04:21.555Z,79.70
2018-09-21T18:06:51.759Z,79.29
2018-09-21T18:09:21.121Z,81.22
2018-09-21T18:11:49.524Z,80.74
2018-09-21T18:14:17.731Z,80.69
2018-09-21T18:16:46.193Z,82.12
2018-09-21T18:19:14.471Z,80.64
2018-09-21T18:21:42.710Z,81.58
2018-09-21T18:24:11.903Z,82.05
2018-09-21T18:26:40.437Z,80.50
2018-09-21T18:29:08.641Z,80.51
2018-09-21T18:31:38.009Z,78.79
2018-09-21T18:34:06.193Z,78.99
2018-09-21T18:36:34.469Z,78.46
2018-09-21T18:39:02.922Z,79.77
2018-09-21T18:41:35.120Z,78.99
2018-09-21T18:44:03.731Z,79.21
2018-09-21T18:46:32.112Z,78.19
2018-09-21T18:49:00.405Z,78.57
2018-09-21T18:51:28.835Z,79.31
2018-09-21T18:53:57.201Z,78.32
2018-09-21T18:56:25.549Z,78.61
2018-09-21T18:58:53.773Z,78.22
2018-09-21T19:01:21.981Z,78.59
2018-09-21T19:03:50.320Z,77.60
2018-09-21T19:06:18.573Z,79.11
2018-09-21T19:08:47.297Z,78.64
2018-09-21T19:11:15.563Z,78.31
2018-09-21T19:13:43.792Z,78.25
2018-09-21T19:16:12.086Z,78.11
2018-09-21T19:18:40.305Z,78.71
2018-09-21T19:21:08.572Z,78.47
2018-09-21T19:23:37.038Z,77.51
2018-09-21T19:26:05.427Z,77.68
2018-09-21T19:28:33.817Z,77.72
2018-09-21T19:31:02.026Z,78.56
2018-09-21T19:33:30.330Z,77.80
2018-09-21T19:36:00.767Z,78.13
2018-09-21T19:38:29.176Z,77.71
2018-09-21T19:40:57.463Z,77.22
2018-09-21T19:43:25.696Z,77.77
2018-09-21T19:45:54.019Z,78.23
2018-09-21T19:48:22.365Z,77.63
2018-09-21T19:50:50.479Z,77.40
2018-09-21T19:53:18.679Z,78.27
2018-09-21T19:55:46.899Z,77.14
2018-09-21T19:58:15.152Z,76.76
2018-09-21T20:00:43.371Z,76.98
2018-09-21T20:03:11.614Z,76.31
2018-09-21T20:05:40.368Z,77.32
2018-09-21T20:08:08.580Z,76.02
2018-09-21T20:10:36.793Z,76.33
2018-09-21T20:13:05.010Z,77.29
2018-09-21T20:15:36.220Z,77.22
2018-09-21T20:18:04.491Z,76.89
2018-09-21T20:20:35.236Z,76.63
2018-09-21T20:23:05.248Z,76.10
2018-09-21T20:25:33.565Z,76.02
2018-09-21T20:28:01.776Z,77.16
2018-09-21T20:30:35.495Z,75.31
2018-09-21T20:33:10.557Z,76.41
2018-09-21T20:35:40.494Z,76.37
2018-09-21T20:38:08.647Z,77.13
2018-09-21T20:40:36.867Z,76.53
2018-09-21T20:43:05.065Z,76.26
2018-09-21T20:45:33.245Z,76.50
2018-09-21T20:48:01.464Z,76.19
2018-09-21T20:50:29.770Z,76.04
2018-09-21T20:52:58.470Z,76.33
2018-09-21T20:55:26.659Z,75.45
2018-09-21T20:57:54.952Z,75.04
2018-09-21T21:00:23.256Z,75.45
2018-09-21T21:02:51.478Z,75.71
2018-09-21T21:05:19.963Z,75.01
2018-09-21T21:07:48.137Z,74.30
2018-09-21T21:10:16.364Z,74.86
2018-09-21T21:12:44.644Z,75.40
2018-09-21T21:15:12.850Z,74.39
2018-09-21T21:17:41.921Z,74.41
2018-09-21T21:20:10.261Z,74.70
2018-09-21T21:22:38.414Z,74.29
2018-09-21T21:25:06.774Z,73.82
2018-09-21T21:27:35.136Z,75.28
2018-09-21T21:30:03.352Z,74.84
2018-09-21T21:32:31.676Z,74.21
2018-09-21T21:35:00.027Z,74.19
2018-09-21T21:37:28.336Z,73.57
2018-09-21T21:39:56.531Z,73.71
2018-09-21T21:42:24.696Z,72.88
2018-09-21T21:44:59.570Z,73.46
2018-09-21T21:47:27.792Z,71.83
2018-09-21T21:49:56.014Z,71.95
2018-09-21T21:52:24.238Z,70.95
2018-09-21T21:54:52.441Z,71.11
2018-09-21T21:57:20.799Z,71.74
2018-09-21T21:59:49.170Z,72.02
2018-09-21T22:02:17.380Z,70.99
2018-09-21T22:04:45.575Z,70.05
2018-09-21T22:07:13.752Z,70.20
2018-09-21T22:09:42.071Z,69.44
2018-09-21T22:12:15.778Z,68.92
2018-09-21T22:14:44.656Z,68.75
2018-09-21T22:17:12.880Z,69.19
2018-09-21T22:19:41.046Z,69.80
2018-09-21T22:22:09.192Z,69.09
2018-09-21T22:24:37.387Z,69.06
2018-09-21T22:27:05.700Z,69.06
2018-09-21T22:29:33.847Z,70.39
2018-09-21T22:32:02.046Z,69.25
2018-09-21T22:34:30.229Z,68.77
2018-09-21T22:36:58.572Z,68.17
2018-09-21T22:39:27.360Z,69.11
2018-09-21T22:41:55.543Z,66.73
2018-09-21T22:44:23.808Z,68.16
2018-09-21T22:46:52.000Z,68.49
2018-09-21T22:49:22.645Z,67.36
2018-09-21T22:51:51.103Z,67.86
2018-09-21T22:54:19.276Z,66.96
2018-09-21T22:56:47.448Z,67.06
2018-09-21T22:59:15.733Z,67.44
2018-09-21T23:01:43.908Z,67.32
2018-09-21T23:04:12.160Z,67.58
2018-09-21T23:06:40.415Z,68.75
2018-09-21T23:09:10.492Z,68.49
2018-09-21T23:11:38.874Z,69.00
2018-09-21T23:14:07.096Z,68.73
2018-09-21T23:16:35.320Z,68.60
2018-09-21T23:19:03.582Z,68.99
2018-09-21T23:21:32.667Z,69.22
2018-09-21T23:24:00.965Z,68.77
2018-09-21T23:26:29.164Z,67.75
2018-09-21T23:28:57.476Z,67.07
2018-09-21T23:31:25.904Z,67.52
2018-09-21T23:33:54.052Z,67.49
2018-09-21T23:36:22.635Z,66.81
2018-09-21T23:38:51.253Z,66.23
2018-09-21T23:41:19.464Z,66.96
2018-09-21T23:43:47.732Z,66.77
2018-09-21T23:46:16.026Z,66.24
2018-09-21T23:48:44.234Z,66.85
2018-09-21T23:51:12.476Z,65.47
2018-09-21T23:53:40.902Z,65.89
2018-09-21T23:56:09.608Z,65.60
2018-09-21T23:58:38.265Z,66.54
